Weather at Bennet Field

Public forecast

Using degrees Fahrenheit for public forecast. Weather courtesy of forecast.io.

Closest aviation weather report (METAR) to Bennet Field

Closest report is Wittman Regional Airport, 16.2 nm (30.0 km) ENE. Retrieved 2021/06/13 16:53 UTC (11 minutes ago):

KOSH 131653Z 33010KT 10SM CLR 28/10 A3001 RMK AO2 SLP148 T02780100

Closest aviation forecast (TAF) to Bennet Field

Forecast is more than 12 hours old.

Closest forecast is Wittman Regional Airport, 16.2 nm (30.0 km) ENE. Retrieved 2021/05/03 12:42 UTC (1 month ago):

TAF KOSH 031141Z 0312/0412 VRB04KT 4SM TSRA BR OVC005CB TEMPO 0315/0318 2SM TSRA BR OVC001CB FM031800 04005KT 4SM SHRA BR OVC006 TEMPO 0318/0321 2SM TSRA BR OVC004CB FM040000 36007KT 4SM BR VCTS BKN005CB FM040300 35007KT 6SM BR VCSH BKN008 FM040600 33009KT P6SM OVC010